createdAt,value
2022-12-15T00:01:48.283Z,16.85
2022-12-15T00:04:16.853Z,16.82
2022-12-15T00:06:45.031Z,16.81
2022-12-15T00:09:14.616Z,16.78
2022-12-15T00:11:43.637Z,16.77
2022-12-15T00:14:11.812Z,16.76
2022-12-15T00:16:39.985Z,16.75
2022-12-15T00:19:08.269Z,16.75
2022-12-15T00:21:36.243Z,16.74
2022-12-15T00:24:04.440Z,16.72
2022-12-15T00:26:32.504Z,16.71
2022-12-15T00:29:00.577Z,16.70
2022-12-15T00:31:28.817Z,16.69
2022-12-15T00:33:57.861Z,16.68
2022-12-15T00:36:25.909Z,16.65
2022-12-15T00:38:56.157Z,16.63
2022-12-15T00:41:27.679Z,16.62
2022-12-15T00:43:55.709Z,16.60
2022-12-15T00:46:23.862Z,16.60
2022-12-15T00:48:52.910Z,16.59
2022-12-15T00:51:21.221Z,16.59
2022-12-15T00:53:49.607Z,16.59
2022-12-15T00:56:18.128Z,16.60
2022-12-15T00:58:46.381Z,16.61
2022-12-15T01:01:14.249Z,16.62
2022-12-15T01:03:42.523Z,16.64
2022-12-15T01:06:13.238Z,16.66
2022-12-15T01:08:41.329Z,16.69
2022-12-15T01:11:09.422Z,16.72
2022-12-15T01:13:37.632Z,16.75
2022-12-15T01:16:13.209Z,16.77
2022-12-15T01:18:41.257Z,16.79
2022-12-15T01:21:10.973Z,16.82
2022-12-15T01:23:41.084Z,16.83
2022-12-15T01:26:09.180Z,16.85
2022-12-15T01:28:37.357Z,16.87
2022-12-15T01:31:12.738Z,16.88
2022-12-15T01:33:41.065Z,16.89
2022-12-15T01:36:09.869Z,16.90
2022-12-15T01:38:38.030Z,16.89
2022-12-15T01:41:10.415Z,16.88
2022-12-15T01:43:40.570Z,16.86
2022-12-15T01:46:17.137Z,16.85
2022-12-15T01:49:14.485Z,16.83
2022-12-15T01:51:50.733Z,16.81
2022-12-15T01:54:29.279Z,16.79
2022-12-15T01:57:03.342Z,16.77
2022-12-15T01:59:36.186Z,16.75
2022-12-15T02:02:04.846Z,16.73
2022-12-15T02:04:34.211Z,16.71
2022-12-15T02:07:02.239Z,16.71
2022-12-15T02:09:30.836Z,16.69
2022-12-15T02:12:26.236Z,16.68
2022-12-15T02:15:08.898Z,16.67
2022-12-15T02:17:55.038Z,16.66
2022-12-15T02:20:40.352Z,16.65
2022-12-15T02:23:17.382Z,16.64
2022-12-15T02:25:54.881Z,16.62
2022-12-15T02:28:29.120Z,16.61
2022-12-15T02:31:15.505Z,16.61
2022-12-15T02:34:09.116Z,16.60
2022-12-15T02:36:41.380Z,16.59
2022-12-15T02:39:12.333Z,16.58
2022-12-15T02:41:44.277Z,16.57
2022-12-15T02:44:18.466Z,16.57
2022-12-15T02:47:08.588Z,16.55
2022-12-15T02:49:55.429Z,16.54
2022-12-15T02:52:55.945Z,16.54
2022-12-15T02:55:46.316Z,16.53
2022-12-15T02:58:23.608Z,16.51
2022-12-15T03:01:00.593Z,16.47
2022-12-15T03:03:31.885Z,16.44
2022-12-15T03:06:00.931Z,16.41
2022-12-15T03:08:29.129Z,16.39
2022-12-15T03:10:58.569Z,16.38
2022-12-15T03:13:26.804Z,16.37
2022-12-15T03:15:55.970Z,16.37
2022-12-15T03:18:24.470Z,16.35
2022-12-15T03:20:52.694Z,16.33
2022-12-15T03:23:20.907Z,16.32
2022-12-15T03:25:49.635Z,16.30
2022-12-15T03:28:18.509Z,16.27
2022-12-15T03:30:50.386Z,16.26
2022-12-15T03:33:19.107Z,16.25
2022-12-15T03:35:47.236Z,16.22
2022-12-15T03:38:15.361Z,16.19
2022-12-15T03:40:44.181Z,16.16
2022-12-15T03:43:12.555Z,16.12
2022-12-15T03:45:40.698Z,16.08
2022-12-15T03:48:09.122Z,16.05
2022-12-15T03:50:37.194Z,16.01
2022-12-15T03:53:05.801Z,15.95
2022-12-15T03:55:34.175Z,15.89
2022-12-15T03:58:02.260Z,15.84
2022-12-15T04:00:30.439Z,15.79
2022-12-15T04:02:59.494Z,15.74
2022-12-15T04:05:33.050Z,15.70
2022-12-15T04:08:02.432Z,15.65
2022-12-15T04:10:34.765Z,15.61
2022-12-15T04:13:06.093Z,15.56
2022-12-15T04:15:35.459Z,15.51
2022-12-15T04:18:06.105Z,15.47
2022-12-15T04:20:34.741Z,15.44
2022-12-15T04:23:02.858Z,15.41
2022-12-15T04:25:31.161Z,15.39
2022-12-15T04:28:01.742Z,15.38
2022-12-15T04:30:31.895Z,15.35
2022-12-15T04:33:00.613Z,15.33
2022-12-15T04:35:29.186Z,15.31
2022-12-15T04:37:57.750Z,15.28
2022-12-15T04:40:25.726Z,15.25
2022-12-15T04:42:53.827Z,15.23
2022-12-15T04:45:24.801Z,15.21
2022-12-15T04:47:52.798Z,15.18
2022-12-15T04:50:20.836Z,15.16
2022-12-15T04:52:48.921Z,15.17
2022-12-15T04:55:17.169Z,15.17
2022-12-15T04:57:45.187Z,15.16
2022-12-15T05:00:13.848Z,15.15
2022-12-15T05:02:41.926Z,15.12
2022-12-15T05:05:10.241Z,15.09
2022-12-15T05:07:38.351Z,15.06
2022-12-15T05:10:12.739Z,15.02
2022-12-15T05:12:44.240Z,14.99
2022-12-15T05:15:12.774Z,15.00
2022-12-15T05:17:41.907Z,15.03
2022-12-15T05:20:10.344Z,15.03
2022-12-15T05:22:38.386Z,15.01
2022-12-15T05:25:06.857Z,14.99
2022-12-15T05:27:34.993Z,14.95
2022-12-15T05:30:03.247Z,14.91
2022-12-15T05:32:32.689Z,14.88
2022-12-15T05:35:01.046Z,14.86
2022-12-15T05:37:29.443Z,14.83
2022-12-15T05:39:57.475Z,14.81
2022-12-15T05:42:25.546Z,14.79
2022-12-15T05:44:53.544Z,14.76
2022-12-15T05:47:21.934Z,14.73
2022-12-15T05:49:50.143Z,14.71
2022-12-15T05:52:18.330Z,14.70
2022-12-15T05:54:46.565Z,14.70
2022-12-15T05:57:14.680Z,14.70
2022-12-15T05:59:42.960Z,14.69
2022-12-15T06:02:11.231Z,14.69
2022-12-15T06:04:39.862Z,14.68
2022-12-15T06:07:07.947Z,14.68
2022-12-15T06:09:36.143Z,14.68
2022-12-15T06:12:04.448Z,14.67
2022-12-15T06:14:32.604Z,14.66
2022-12-15T06:17:00.719Z,14.65
2022-12-15T06:19:28.949Z,14.64
2022-12-15T06:21:57.127Z,14.62
2022-12-15T06:24:25.305Z,14.60
2022-12-15T06:26:53.491Z,14.58
2022-12-15T06:29:21.770Z,14.54
2022-12-15T06:31:49.873Z,14.51
2022-12-15T06:34:18.749Z,14.48
2022-12-15T06:36:47.145Z,14.45
2022-12-15T06:39:16.600Z,14.41
2022-12-15T06:41:44.900Z,14.39
2022-12-15T06:44:15.292Z,14.37
2022-12-15T06:46:44.162Z,14.34
2022-12-15T06:49:12.693Z,14.31
2022-12-15T06:51:40.879Z,14.28
2022-12-15T06:54:09.864Z,14.26
2022-12-15T06:56:39.366Z,14.25
2022-12-15T06:59:07.916Z,14.22
2022-12-15T07:01:36.143Z,14.22
2022-12-15T07:04:04.850Z,14.20
2022-12-15T07:06:37.049Z,14.18
2022-12-15T07:09:08.120Z,14.17
2022-12-15T07:11:36.389Z,14.17
2022-12-15T07:14:04.926Z,14.16
2022-12-15T07:16:33.736Z,14.16
2022-12-15T07:19:02.173Z,14.17
2022-12-15T07:21:30.297Z,14.19
2022-12-15T07:23:59.410Z,14.22
2022-12-15T07:26:28.855Z,14.25
2022-12-15T07:28:56.858Z,14.31
2022-12-15T07:31:25.427Z,14.38
2022-12-15T07:33:53.514Z,14.46
2022-12-15T07:36:21.873Z,14.57
2022-12-15T07:38:51.585Z,14.70
2022-12-15T07:41:20.572Z,14.84
2022-12-15T07:43:48.933Z,14.99
2022-12-15T07:46:18.428Z,15.19
2022-12-15T07:48:50.966Z,15.48
2022-12-15T07:51:21.483Z,16.00
2022-12-15T07:53:50.739Z,16.86
2022-12-15T07:56:20.365Z,18.16
2022-12-15T07:58:49.414Z,19.65
2022-12-15T08:01:18.945Z,20.64
2022-12-15T08:03:48.957Z,20.84
2022-12-15T08:06:17.207Z,20.61
2022-12-15T08:08:49.973Z,20.26
2022-12-15T08:11:22.084Z,19.96
2022-12-15T08:14:10.481Z,19.65
2022-12-15T08:16:39.492Z,19.26
2022-12-15T08:19:13.595Z,18.86
2022-12-15T08:21:43.267Z,18.46
2022-12-15T08:24:12.099Z,18.11
2022-12-15T08:26:42.008Z,17.81
2022-12-15T08:32:02.868Z,17.21
2022-12-15T08:34:31.296Z,16.96
2022-12-15T08:36:59.406Z,16.74
2022-12-15T08:39:27.573Z,16.56
2022-12-15T08:41:56.678Z,16.41
2022-12-15T08:44:24.725Z,16.31
2022-12-15T08:46:52.780Z,16.23
2022-12-15T08:49:22.377Z,16.21
2022-12-15T08:51:50.856Z,16.20
2022-12-15T08:54:20.043Z,16.18
2022-12-15T08:56:48.995Z,16.15
2022-12-15T08:59:17.378Z,16.13
2022-12-15T09:01:45.582Z,16.09
2022-12-15T09:04:13.994Z,16.05
2022-12-15T09:06:42.907Z,16.02
2022-12-15T09:09:13.746Z,16.00
2022-12-15T09:11:41.846Z,15.97
2022-12-15T09:14:10.037Z,15.97
2022-12-15T09:16:38.268Z,15.96
2022-12-15T09:19:06.860Z,15.96
2022-12-15T09:21:35.348Z,15.98
2022-12-15T09:24:04.542Z,15.98
2022-12-15T09:26:34.643Z,15.98
2022-12-15T09:29:02.811Z,15.99
2022-12-15T09:31:33.325Z,16.01
2022-12-15T09:34:02.654Z,16.04
2022-12-15T09:36:32.331Z,16.05
2022-12-15T09:39:01.148Z,16.10
2022-12-15T09:41:34.840Z,16.14
2022-12-15T09:44:17.614Z,16.19
2022-12-15T09:46:51.380Z,16.27
2022-12-15T09:49:49.904Z,16.34
2022-12-15T09:52:24.264Z,16.45
2022-12-15T09:54:53.746Z,16.60
2022-12-15T09:57:37.077Z,16.74
2022-12-15T10:00:05.205Z,16.91
2022-12-15T10:02:51.599Z,17.08
2022-12-15T10:06:15.465Z,17.28
2022-12-15T10:08:52.898Z,17.50
2022-12-15T10:11:23.755Z,17.58
2022-12-15T10:14:03.013Z,17.63
2022-12-15T10:16:47.952Z,17.70
2022-12-15T10:19:27.035Z,17.81
2022-12-15T10:21:57.524Z,17.92
2022-12-15T10:25:08.658Z,18.04
2022-12-15T10:27:30.345Z,18.19
2022-12-15T10:30:08.888Z,18.32
2022-12-15T10:32:51.278Z,18.41
2022-12-15T10:35:26.318Z,18.46
2022-12-15T10:38:04.578Z,18.50
2022-12-15T10:40:50.525Z,18.52
2022-12-15T10:43:40.311Z,18.51
2022-12-15T10:46:11.697Z,18.50
2022-12-15T10:48:41.429Z,18.49
2022-12-15T10:51:33.178Z,18.51
2022-12-15T10:54:12.490Z,18.54
2022-12-15T10:56:54.721Z,18.52
2022-12-15T10:59:29.701Z,18.45
2022-12-15T11:02:25.541Z,18.41
2022-12-15T11:04:57.600Z,18.43
2022-12-15T11:07:35.171Z,18.46
2022-12-15T11:10:16.448Z,18.54
2022-12-15T11:12:58.362Z,18.65
2022-12-15T11:15:55.803Z,18.86
2022-12-15T11:18:48.866Z,19.15
2022-12-15T11:21:45.108Z,19.56
2022-12-15T11:24:20.941Z,20.03
2022-12-15T11:26:49.237Z,20.54
2022-12-15T11:29:23.613Z,21.11
2022-12-15T11:31:53.208Z,21.79
2022-12-15T11:34:25.602Z,22.22
2022-12-15T11:37:07.926Z,22.13
2022-12-15T11:39:56.013Z,21.80
2022-12-15T11:42:45.894Z,21.49
2022-12-15T11:45:48.259Z,21.14
2022-12-15T11:48:26.127Z,20.80
2022-12-15T11:51:03.086Z,20.49
2022-12-15T11:54:15.649Z,20.17
2022-12-15T11:56:53.134Z,19.90
2022-12-15T11:59:20.956Z,19.72
2022-12-15T12:02:03.467Z,19.63
2022-12-15T12:05:07.191Z,19.49
2022-12-15T12:07:45.591Z,19.39
2022-12-15T12:10:29.283Z,19.38
2022-12-15T12:13:04.803Z,19.38
2022-12-15T12:15:42.724Z,19.31
2022-12-15T12:18:42.701Z,19.24
2022-12-15T12:21:24.226Z,19.20
2022-12-15T12:24:00.686Z,19.14
2022-12-15T12:26:28.814Z,19.10
2022-12-15T12:29:06.663Z,19.06
2022-12-15T12:31:40.586Z,18.99
2022-12-15T12:34:22.729Z,18.96
2022-12-15T12:36:53.082Z,18.98
2022-12-15T12:39:24.826Z,19.01
2022-12-15T12:42:09.130Z,19.05
2022-12-15T12:44:38.913Z,19.13
2022-12-15T12:47:12.691Z,19.30
2022-12-15T12:49:50.785Z,19.55
2022-12-15T12:52:32.443Z,19.80
2022-12-15T12:55:09.565Z,19.96
2022-12-15T12:57:45.355Z,20.07
2022-12-15T13:00:32.577Z,20.14
2022-12-15T13:03:13.711Z,20.16
2022-12-15T13:05:43.632Z,20.15
2022-12-15T13:08:14.633Z,20.12
2022-12-15T13:10:47.925Z,20.13
2022-12-15T13:13:18.827Z,20.14
2022-12-15T13:15:51.375Z,20.10
2022-12-15T13:18:27.252Z,20.03
2022-12-15T13:20:57.377Z,19.93
2022-12-15T13:23:27.075Z,19.78
2022-12-15T13:25:59.039Z,19.64
2022-12-15T13:28:36.691Z,19.52
2022-12-15T13:31:17.019Z,19.44
2022-12-15T13:33:51.142Z,19.41
2022-12-15T13:36:37.841Z,19.36
2022-12-15T13:39:28.553Z,19.35
2022-12-15T13:44:55.084Z,19.51
2022-12-15T13:47:27.756Z,19.63
2022-12-15T13:50:03.577Z,19.71
2022-12-15T13:53:18.010Z,19.72
2022-12-15T13:55:53.060Z,19.68
2022-12-15T13:58:24.079Z,19.66
2022-12-15T14:00:57.395Z,19.67
2022-12-15T14:03:25.665Z,19.67
2022-12-15T14:05:56.627Z,19.66
2022-12-15T14:08:29.205Z,19.64
2022-12-15T14:11:00.167Z,19.61
2022-12-15T14:13:36.286Z,19.58
2022-12-15T14:16:14.772Z,19.58
2022-12-15T14:18:43.924Z,19.65
2022-12-15T14:21:23.039Z,19.74
2022-12-15T14:24:28.293Z,19.79
2022-12-15T14:26:41.558Z,19.83
2022-12-15T14:29:10.930Z,19.91
2022-12-15T14:31:40.590Z,19.99
2022-12-15T14:34:13.805Z,20.09
2022-12-15T14:36:43.945Z,20.20
2022-12-15T14:39:30.731Z,20.32
2022-12-15T14:41:59.845Z,20.43
2022-12-15T14:44:37.982Z,20.54
2022-12-15T14:47:21.349Z,20.65
2022-12-15T14:49:51.437Z,20.71
2022-12-15T14:52:28.287Z,20.69
2022-12-15T14:54:59.534Z,20.65
2022-12-15T14:57:46.658Z,20.64
2022-12-15T15:00:30.785Z,20.65
2022-12-15T15:03:24.184Z,20.60
2022-12-15T15:06:03.822Z,20.54
2022-12-15T15:08:37.000Z,20.50
2022-12-15T15:11:24.026Z,20.50
2022-12-15T15:14:19.007Z,20.46
2022-12-15T15:17:01.387Z,20.36
2022-12-15T15:19:30.695Z,20.27
2022-12-15T15:22:02.018Z,20.19
2022-12-15T15:24:34.838Z,20.10
2022-12-15T15:27:39.505Z,20.05
2022-12-15T15:30:27.911Z,20.08
2022-12-15T15:32:57.935Z,20.13
2022-12-15T15:35:31.545Z,20.16
2022-12-15T15:38:22.016Z,20.19
2022-12-15T15:40:55.778Z,20.24
2022-12-15T15:43:25.623Z,20.19
2022-12-15T15:46:06.649Z,20.08
2022-12-15T15:48:42.221Z,19.95
2022-12-15T15:51:10.840Z,19.83
2022-12-15T15:53:39.701Z,19.72
2022-12-15T15:56:12.083Z,19.62
2022-12-15T15:58:40.673Z,19.50
2022-12-15T16:01:13.133Z,19.37
2022-12-15T16:03:42.321Z,19.23
2022-12-15T16:06:21.932Z,19.10
2022-12-15T16:08:53.208Z,18.98
2022-12-15T16:11:27.919Z,18.86
2022-12-15T16:13:56.272Z,18.77
2022-12-15T16:16:30.231Z,18.69
2022-12-15T16:18:58.696Z,18.62
2022-12-15T16:21:27.960Z,18.55
2022-12-15T16:23:59.053Z,18.49
2022-12-15T16:26:32.538Z,18.43
2022-12-15T16:29:00.866Z,18.36
2022-12-15T16:31:38.953Z,18.28
2022-12-15T16:34:09.560Z,18.19
2022-12-15T16:36:38.442Z,18.10
2022-12-15T16:39:37.701Z,18.02
2022-12-15T16:42:09.782Z,17.94
2022-12-15T16:44:37.930Z,17.88
2022-12-15T16:47:05.958Z,17.82
2022-12-15T16:49:39.963Z,17.76
2022-12-15T16:52:19.590Z,17.71
2022-12-15T16:54:49.653Z,17.66
2022-12-15T16:57:17.999Z,17.61
2022-12-15T16:59:46.188Z,17.56
2022-12-15T17:02:29.866Z,17.52
2022-12-15T17:04:58.579Z,17.48
2022-12-15T17:07:27.949Z,17.42
2022-12-15T17:09:56.639Z,17.36
2022-12-15T17:12:25.195Z,17.31
2022-12-15T17:14:53.713Z,17.25
2022-12-15T17:17:22.026Z,17.19
2022-12-15T17:20:32.692Z,17.12
2022-12-15T17:22:38.677Z,17.05
2022-12-15T17:25:15.761Z,16.99
2022-12-15T17:27:44.637Z,16.93
2022-12-15T17:30:15.123Z,16.87
2022-12-15T17:32:43.903Z,16.81
2022-12-15T17:35:12.652Z,16.76
2022-12-15T17:37:41.350Z,16.72
2022-12-15T17:40:22.626Z,16.68
2022-12-15T17:42:51.080Z,16.65
2022-12-15T17:45:24.401Z,16.63
2022-12-15T17:47:52.604Z,16.60
2022-12-15T17:50:20.797Z,16.58
2022-12-15T17:52:49.026Z,16.56
2022-12-15T17:55:21.819Z,16.54
2022-12-15T17:57:51.266Z,16.52
2022-12-15T18:00:31.607Z,16.51
2022-12-15T18:03:00.887Z,16.50
2022-12-15T18:05:30.424Z,16.47
2022-12-15T18:08:02.806Z,16.45
2022-12-15T18:10:38.145Z,16.44
2022-12-15T18:13:19.602Z,16.42
2022-12-15T18:15:48.724Z,16.42
2022-12-15T18:18:18.583Z,16.41
2022-12-15T18:20:47.745Z,16.41
2022-12-15T18:23:20.162Z,16.41
2022-12-15T18:25:48.729Z,16.41
2022-12-15T18:28:19.541Z,16.41
2022-12-15T18:30:52.509Z,16.38
2022-12-15T18:33:22.645Z,16.34
2022-12-15T18:35:52.542Z,16.28
2022-12-15T18:38:24.813Z,16.21
2022-12-15T18:40:59.458Z,16.14
2022-12-15T18:43:35.353Z,16.07
2022-12-15T18:46:03.651Z,16.00
2022-12-15T18:48:33.904Z,15.94
2022-12-15T18:51:07.159Z,15.89
2022-12-15T18:53:36.846Z,15.83
2022-12-15T18:56:07.750Z,15.77
2022-12-15T18:58:38.406Z,15.71
2022-12-15T19:01:08.511Z,15.65
2022-12-15T19:03:37.786Z,15.60
2022-12-15T19:06:35.694Z,15.55
2022-12-15T19:09:24.199Z,15.51
2022-12-15T19:11:52.542Z,15.50
2022-12-15T19:14:20.864Z,15.48
2022-12-15T19:16:49.164Z,15.46
2022-12-15T19:19:17.608Z,15.45
2022-12-15T19:21:45.628Z,15.43
2022-12-15T19:24:16.763Z,15.42
2022-12-15T19:26:44.868Z,15.41
2022-12-15T19:29:21.582Z,15.41
2022-12-15T19:31:49.965Z,15.40
2022-12-15T19:34:18.172Z,15.39
2022-12-15T19:36:46.338Z,15.39
2022-12-15T19:39:24.608Z,15.36
2022-12-15T19:41:52.789Z,15.34
2022-12-15T19:44:22.929Z,15.32
2022-12-15T19:46:51.026Z,15.28
2022-12-15T19:49:19.238Z,15.25
2022-12-15T19:51:47.402Z,15.23
2022-12-15T19:54:21.896Z,15.22
2022-12-15T19:56:49.850Z,15.21
2022-12-15T19:59:26.707Z,15.20
2022-12-15T20:01:54.957Z,15.20
2022-12-15T20:04:24.508Z,15.20
2022-12-15T20:06:52.940Z,15.22
2022-12-15T20:09:21.139Z,15.25
2022-12-15T20:11:49.327Z,15.27
2022-12-15T20:14:17.986Z,15.30
2022-12-15T20:16:46.472Z,15.31
2022-12-15T20:19:14.557Z,15.31
2022-12-15T20:21:42.882Z,15.30
2022-12-15T20:24:19.486Z,15.29
2022-12-15T20:26:49.006Z,15.27
2022-12-15T20:29:28.462Z,15.26
2022-12-15T20:31:58.465Z,15.24
2022-12-15T20:34:26.601Z,15.23
2022-12-15T20:36:54.747Z,15.21
2022-12-15T20:39:31.155Z,15.20
2022-12-15T20:41:59.742Z,15.18
2022-12-15T20:44:27.870Z,15.15
2022-12-15T20:46:56.567Z,15.13
2022-12-15T20:49:24.734Z,15.12
2022-12-15T20:51:52.776Z,15.10
2022-12-15T20:54:22.349Z,15.07
2022-12-15T20:56:50.806Z,15.06
2022-12-15T20:59:19.299Z,15.04
2022-12-15T21:01:47.840Z,15.03
2022-12-15T21:04:30.481Z,15.01
2022-12-15T21:06:58.941Z,15.00
2022-12-15T21:09:27.058Z,14.98
2022-12-15T21:11:55.212Z,14.96
2022-12-15T21:14:24.296Z,14.93
2022-12-15T21:16:53.017Z,14.92
2022-12-15T21:19:22.345Z,14.90
2022-12-15T21:21:55.058Z,14.88
2022-12-15T21:24:26.109Z,14.87
2022-12-15T21:26:55.472Z,14.86
2022-12-15T21:29:26.089Z,14.84
2022-12-15T21:31:54.233Z,14.82
2022-12-15T21:34:23.271Z,14.79
2022-12-15T21:36:54.914Z,14.76
2022-12-15T21:39:35.252Z,14.72
2022-12-15T21:42:07.771Z,14.69
2022-12-15T21:44:36.338Z,14.64
2022-12-15T21:47:32.120Z,14.59
2022-12-15T21:50:00.445Z,14.55
2022-12-15T21:52:28.584Z,14.53
2022-12-15T21:54:56.796Z,14.48
2022-12-15T21:57:24.913Z,14.47
2022-12-15T21:59:53.044Z,14.46
2022-12-15T22:02:27.125Z,14.47
2022-12-15T22:04:55.509Z,14.48
2022-12-15T22:07:23.480Z,14.51
2022-12-15T22:09:51.914Z,14.52
2022-12-15T22:12:22.770Z,14.54
2022-12-15T22:14:50.922Z,14.55
2022-12-15T22:17:22.185Z,14.57
2022-12-15T22:19:50.295Z,14.59
2022-12-15T22:22:18.476Z,14.63
2022-12-15T22:24:46.678Z,14.66
2022-12-15T22:27:23.743Z,14.69
2022-12-15T22:29:52.390Z,14.71
2022-12-15T22:32:20.376Z,14.74
2022-12-15T22:34:48.422Z,14.75
2022-12-15T22:37:16.822Z,14.75
2022-12-15T22:39:44.904Z,14.74
2022-12-15T22:42:17.146Z,14.74
2022-12-15T22:44:45.764Z,14.74
2022-12-15T22:47:13.924Z,14.75
2022-12-15T22:49:42.726Z,14.78
2022-12-15T22:52:19.436Z,14.81
2022-12-15T22:54:48.027Z,14.84
2022-12-15T22:57:22.782Z,14.86
2022-12-15T23:00:10.984Z,14.87
2022-12-15T23:02:41.865Z,14.89
2022-12-15T23:05:13.217Z,14.89
2022-12-15T23:07:42.310Z,14.88
2022-12-15T23:10:12.268Z,14.87
2022-12-15T23:12:40.893Z,14.85
2022-12-15T23:15:09.849Z,14.85
2022-12-15T23:17:37.957Z,14.82
2022-12-15T23:20:06.644Z,14.82
2022-12-15T23:22:34.838Z,14.81
2022-12-15T23:25:02.954Z,14.79
2022-12-15T23:27:31.521Z,14.78
2022-12-15T23:29:59.961Z,14.77
2022-12-15T23:32:28.033Z,14.77
2022-12-15T23:34:56.262Z,14.78
2022-12-15T23:37:24.275Z,14.78
2022-12-15T23:39:52.212Z,14.78
2022-12-15T23:42:20.963Z,14.78
2022-12-15T23:44:48.983Z,14.78
2022-12-15T23:47:17.351Z,14.76
2022-12-15T23:49:45.689Z,14.72
2022-12-15T23:52:13.842Z,14.66
2022-12-15T23:54:42.064Z,14.55
2022-12-15T23:57:10.434Z,14.44
2022-12-15T23:59:38.798Z,14.34
